sensor_id;sensor_type;location;lat;lon;timestamp;temperature;humidity
64396;DHT22;50717;53.360;6.290;2022-07-15T00:00:27;15.40;99.90
64396;DHT22;50717;53.360;6.290;2022-07-15T00:02:52;15.10;99.90
64396;DHT22;50717;53.360;6.290;2022-07-15T00:05:18;14.90;99.90
64396;DHT22;50717;53.360;6.290;2022-07-15T00:07:44;14.80;99.90
64396;DHT22;50717;53.360;6.290;2022-07-15T00:10:10;15.10;99.90
64396;DHT22;50717;53.360;6.290;2022-07-15T00:12:51;14.90;99.90
64396;DHT22;50717;53.360;6.290;2022-07-15T00:15:19;14.80;99.90
64396;DHT22;50717;53.360;6.290;2022-07-15T00:17:46;14.80;99.90
64396;DHT22;50717;53.360;6.290;2022-07-15T00:20:13;14.80;99.90
64396;DHT22;50717;53.360;6.290;2022-07-15T00:22:39;14.80;99.90
64396;DHT22;50717;53.360;6.290;2022-07-15T00:25:05;14.60;99.90
64396;DHT22;50717;53.360;6.290;2022-07-15T00:27:31;15.00;99.90
64396;DHT22;50717;53.360;6.290;2022-07-15T00:29:57;14.70;99.90
64396;DHT22;50717;53.360;6.290;2022-07-15T00:32:22;15.00;99.90
64396;DHT22;50717;53.360;6.290;2022-07-15T00:34:48;14.80;99.90
64396;DHT22;50717;53.360;6.290;2022-07-15T00:37:15;15.00;99.90
64396;DHT22;50717;53.360;6.290;2022-07-15T00:39:41;14.60;99.90
64396;DHT22;50717;53.360;6.290;2022-07-15T00:42:06;14.90;99.90
64396;DHT22;50717;53.360;6.290;2022-07-15T00:44:32;14.60;99.90
64396;DHT22;50717;53.360;6.290;2022-07-15T00:46:58;14.50;99.90
64396;DHT22;50717;53.360;6.290;2022-07-15T00:49:25;14.70;99.90
64396;DHT22;50717;53.360;6.290;2022-07-15T00:51:52;14.40;99.90
64396;DHT22;50717;53.360;6.290;2022-07-15T00:54:22;14.60;99.90
64396;DHT22;50717;53.360;6.290;2022-07-15T00:56:51;15.20;99.90
64396;DHT22;50717;53.360;6.290;2022-07-15T00:59:17;14.60;99.90
64396;DHT22;50717;53.360;6.290;2022-07-15T01:01:48;14.70;99.90
64396;DHT22;50717;53.360;6.290;2022-07-15T01:04:14;14.60;99.90
64396;DHT22;50717;53.360;6.290;2022-07-15T01:06:42;14.40;99.90
64396;DHT22;50717;53.360;6.290;2022-07-15T01:09:08;14.50;99.90
64396;DHT22;50717;53.360;6.290;2022-07-15T01:11:34;14.40;99.90
64396;DHT22;50717;53.360;6.290;2022-07-15T01:14:01;14.50;99.90
64396;DHT22;50717;53.360;6.290;2022-07-15T01:16:27;14.30;99.90
64396;DHT22;50717;53.360;6.290;2022-07-15T01:18:53;14.40;99.90
64396;DHT22;50717;53.360;6.290;2022-07-15T01:21:20;14.20;99.90
64396;DHT22;50717;53.360;6.290;2022-07-15T01:23:45;14.50;99.90
64396;DHT22;50717;53.360;6.290;2022-07-15T01:26:12;15.60;99.90
64396;DHT22;50717;53.360;6.290;2022-07-15T01:28:39;14.00;99.90
64396;DHT22;50717;53.360;6.290;2022-07-15T01:31:05;14.20;99.90
64396;DHT22;50717;53.360;6.290;2022-07-15T01:33:32;14.10;99.90
64396;DHT22;50717;53.360;6.290;2022-07-15T01:35:58;13.80;99.90
64396;DHT22;50717;53.360;6.290;2022-07-15T01:38:25;14.00;99.90
64396;DHT22;50717;53.360;6.290;2022-07-15T01:40:51;14.00;99.90
64396;DHT22;50717;53.360;6.290;2022-07-15T01:43:17;13.80;99.90
64396;DHT22;50717;53.360;6.290;2022-07-15T01:45:43;13.50;99.90
64396;DHT22;50717;53.360;6.290;2022-07-15T01:48:09;14.00;99.90
64396;DHT22;50717;53.360;6.290;2022-07-15T01:50:57;14.00;99.90
64396;DHT22;50717;53.360;6.290;2022-07-15T01:53:24;14.00;99.90
64396;DHT22;50717;53.360;6.290;2022-07-15T01:55:50;13.90;99.90
64396;DHT22;50717;53.360;6.290;2022-07-15T01:58:16;13.90;99.90
64396;DHT22;50717;53.360;6.290;2022-07-15T02:00:42;13.70;99.90
64396;DHT22;50717;53.360;6.290;2022-07-15T02:03:07;14.90;99.90
64396;DHT22;50717;53.360;6.290;2022-07-15T02:05:34;13.80;99.90
64396;DHT22;50717;53.360;6.290;2022-07-15T02:08:00;14.40;99.90
64396;DHT22;50717;53.360;6.290;2022-07-15T02:10:26;13.80;99.90
64396;DHT22;50717;53.360;6.290;2022-07-15T02:13:09;13.90;99.90
64396;DHT22;50717;53.360;6.290;2022-07-15T02:15:35;13.80;99.90
64396;DHT22;50717;53.360;6.290;2022-07-15T02:18:01;13.80;99.90
64396;DHT22;50717;53.360;6.290;2022-07-15T02:20:26;13.80;99.90
64396;DHT22;50717;53.360;6.290;2022-07-15T02:22:53;13.60;99.90
64396;DHT22;50717;53.360;6.290;2022-07-15T02:25:26;13.60;99.90
64396;DHT22;50717;53.360;6.290;2022-07-15T02:28:00;13.70;99.90
64396;DHT22;50717;53.360;6.290;2022-07-15T02:30:33;13.60;99.90
64396;DHT22;50717;53.360;6.290;2022-07-15T02:32:59;13.70;99.90
64396;DHT22;50717;53.360;6.290;2022-07-15T02:35:25;13.90;99.90
64396;DHT22;50717;53.360;6.290;2022-07-15T02:37:51;13.70;99.90
64396;DHT22;50717;53.360;6.290;2022-07-15T02:40:16;13.70;99.90
64396;DHT22;50717;53.360;6.290;2022-07-15T02:42:53;13.70;99.90
64396;DHT22;50717;53.360;6.290;2022-07-15T02:45:21;13.70;99.90
64396;DHT22;50717;53.360;6.290;2022-07-15T02:47:48;13.70;99.90
64396;DHT22;50717;53.360;6.290;2022-07-15T02:50:15;13.60;99.90
64396;DHT22;50717;53.360;6.290;2022-07-15T02:52:41;13.60;99.90
64396;DHT22;50717;53.360;6.290;2022-07-15T02:55:08;14.50;99.90
64396;DHT22;50717;53.360;6.290;2022-07-15T02:57:34;14.10;99.90
64396;DHT22;50717;53.360;6.290;2022-07-15T03:00:00;14.10;99.90
64396;DHT22;50717;53.360;6.290;2022-07-15T03:02:26;13.80;99.90
64396;DHT22;50717;53.360;6.290;2022-07-15T03:04:52;14.00;99.90
64396;DHT22;50717;53.360;6.290;2022-07-15T03:07:18;14.00;99.90
64396;DHT22;50717;53.360;6.290;2022-07-15T03:09:44;13.70;99.90
64396;DHT22;50717;53.360;6.290;2022-07-15T03:12:10;14.10;99.90
64396;DHT22;50717;53.360;6.290;2022-07-15T03:14:35;14.40;99.90
64396;DHT22;50717;53.360;6.290;2022-07-15T03:17:01;14.10;99.90
64396;DHT22;50717;53.360;6.290;2022-07-15T03:19:27;14.70;99.90
64396;DHT22;50717;53.360;6.290;2022-07-15T03:21:52;14.50;99.90
64396;DHT22;50717;53.360;6.290;2022-07-15T03:24:18;14.60;99.90
64396;DHT22;50717;53.360;6.290;2022-07-15T03:26:44;14.60;99.90
64396;DHT22;50717;53.360;6.290;2022-07-15T03:29:10;14.60;99.90
64396;DHT22;50717;53.360;6.290;2022-07-15T03:31:35;14.60;99.90
64396;DHT22;50717;53.360;6.290;2022-07-15T03:34:02;14.40;99.90
64396;DHT22;50717;53.360;6.290;2022-07-15T03:36:27;14.40;99.90
64396;DHT22;50717;53.360;6.290;2022-07-15T03:38:53;14.60;99.90
64396;DHT22;50717;53.360;6.290;2022-07-15T03:41:19;14.50;99.90
64396;DHT22;50717;53.360;6.290;2022-07-15T03:43:45;14.50;99.90
64396;DHT22;50717;53.360;6.290;2022-07-15T03:46:10;14.70;99.90
64396;DHT22;50717;53.360;6.290;2022-07-15T03:48:36;14.40;99.90
64396;DHT22;50717;53.360;6.290;2022-07-15T03:51:01;14.90;99.90
64396;DHT22;50717;53.360;6.290;2022-07-15T03:53:27;14.80;99.90
64396;DHT22;50717;53.360;6.290;2022-07-15T03:55:53;14.50;99.90
64396;DHT22;50717;53.360;6.290;2022-07-15T03:58:18;14.60;99.90
64396;DHT22;50717;53.360;6.290;2022-07-15T04:00:44;14.70;99.90
64396;DHT22;50717;53.360;6.290;2022-07-15T04:03:10;15.10;99.90
64396;DHT22;50717;53.360;6.290;2022-07-15T04:05:36;14.60;99.90
64396;DHT22;50717;53.360;6.290;2022-07-15T04:08:01;15.40;99.90
64396;DHT22;50717;53.360;6.290;2022-07-15T04:10:27;14.40;99.90
64396;DHT22;50717;53.360;6.290;2022-07-15T04:12:53;14.90;99.90
64396;DHT22;50717;53.360;6.290;2022-07-15T04:15:18;14.50;99.90
64396;DHT22;50717;53.360;6.290;2022-07-15T04:17:44;14.90;99.90
64396;DHT22;50717;53.360;6.290;2022-07-15T04:20:10;14.70;99.90
64396;DHT22;50717;53.360;6.290;2022-07-15T04:22:41;14.60;99.90
64396;DHT22;50717;53.360;6.290;2022-07-15T04:25:15;14.70;99.90
64396;DHT22;50717;53.360;6.290;2022-07-15T04:27:41;14.40;99.90
64396;DHT22;50717;53.360;6.290;2022-07-15T04:30:08;14.60;99.90
64396;DHT22;50717;53.360;6.290;2022-07-15T04:32:34;14.70;99.90
64396;DHT22;50717;53.360;6.290;2022-07-15T04:35:00;14.60;99.90
64396;DHT22;50717;53.360;6.290;2022-07-15T04:37:27;14.70;99.90
64396;DHT22;50717;53.360;6.290;2022-07-15T04:39:54;14.60;99.90
64396;DHT22;50717;53.360;6.290;2022-07-15T04:42:20;14.80;99.90
64396;DHT22;50717;53.360;6.290;2022-07-15T04:44:46;14.60;99.90
64396;DHT22;50717;53.360;6.290;2022-07-15T04:47:13;14.60;99.90
64396;DHT22;50717;53.360;6.290;2022-07-15T04:49:39;14.80;99.90
64396;DHT22;50717;53.360;6.290;2022-07-15T04:52:23;14.70;99.90
64396;DHT22;50717;53.360;6.290;2022-07-15T04:54:50;14.50;99.90
64396;DHT22;50717;53.360;6.290;2022-07-15T04:57:16;14.80;99.90
64396;DHT22;50717;53.360;6.290;2022-07-15T04:59:41;15.20;99.90
64396;DHT22;50717;53.360;6.290;2022-07-15T05:02:07;15.20;99.90
64396;DHT22;50717;53.360;6.290;2022-07-15T05:04:33;15.50;99.90
64396;DHT22;50717;53.360;6.290;2022-07-15T05:06:58;15.70;99.90
64396;DHT22;50717;53.360;6.290;2022-07-15T05:09:24;15.90;99.90
64396;DHT22;50717;53.360;6.290;2022-07-15T05:11:50;15.70;99.90
64396;DHT22;50717;53.360;6.290;2022-07-15T05:14:15;15.70;99.90
64396;DHT22;50717;53.360;6.290;2022-07-15T05:16:41;15.80;99.90
64396;DHT22;50717;53.360;6.290;2022-07-15T05:19:07;15.80;99.90
64396;DHT22;50717;53.360;6.290;2022-07-15T05:21:33;15.50;99.90
64396;DHT22;50717;53.360;6.290;2022-07-15T05:23:59;15.70;99.90
64396;DHT22;50717;53.360;6.290;2022-07-15T05:26:24;15.40;99.90
64396;DHT22;50717;53.360;6.290;2022-07-15T05:28:50;15.30;99.90
64396;DHT22;50717;53.360;6.290;2022-07-15T05:31:16;15.70;99.90
64396;DHT22;50717;53.360;6.290;2022-07-15T05:33:42;15.70;99.90
64396;DHT22;50717;53.360;6.290;2022-07-15T05:36:13;15.40;99.90
64396;DHT22;50717;53.360;6.290;2022-07-15T05:38:39;15.50;99.90
64396;DHT22;50717;53.360;6.290;2022-07-15T05:41:05;15.60;99.90
64396;DHT22;50717;53.360;6.290;2022-07-15T05:43:31;15.50;99.90
64396;DHT22;50717;53.360;6.290;2022-07-15T05:45:57;15.00;99.90
64396;DHT22;50717;53.360;6.290;2022-07-15T05:48:22;15.00;99.90
64396;DHT22;50717;53.360;6.290;2022-07-15T05:50:48;15.20;99.90
64396;DHT22;50717;53.360;6.290;2022-07-15T05:53:15;14.90;99.90
64396;DHT22;50717;53.360;6.290;2022-07-15T05:55:40;14.80;99.90
64396;DHT22;50717;53.360;6.290;2022-07-15T05:58:07;15.80;99.90
64396;DHT22;50717;53.360;6.290;2022-07-15T06:00:33;15.00;99.90
64396;DHT22;50717;53.360;6.290;2022-07-15T06:02:59;14.90;99.90
64396;DHT22;50717;53.360;6.290;2022-07-15T06:05:25;14.80;99.90
64396;DHT22;50717;53.360;6.290;2022-07-15T06:07:51;15.30;99.90
64396;DHT22;50717;53.360;6.290;2022-07-15T06:10:16;15.10;99.90
64396;DHT22;50717;53.360;6.290;2022-07-15T06:12:42;15.10;99.90
64396;DHT22;50717;53.360;6.290;2022-07-15T06:15:08;15.40;99.90
64396;DHT22;50717;53.360;6.290;2022-07-15T06:17:34;15.30;99.90
64396;DHT22;50717;53.360;6.290;2022-07-15T06:20:00;15.40;99.90
64396;DHT22;50717;53.360;6.290;2022-07-15T06:22:26;15.00;99.90
64396;DHT22;50717;53.360;6.290;2022-07-15T06:24:51;15.60;99.90
64396;DHT22;50717;53.360;6.290;2022-07-15T06:27:19;15.20;99.90
64396;DHT22;50717;53.360;6.290;2022-07-15T06:29:48;15.50;99.90
64396;DHT22;50717;53.360;6.290;2022-07-15T06:32:14;15.20;99.90
64396;DHT22;50717;53.360;6.290;2022-07-15T06:34:39;15.70;99.90
64396;DHT22;50717;53.360;6.290;2022-07-15T06:37:05;15.40;99.90
64396;DHT22;50717;53.360;6.290;2022-07-15T06:39:31;15.50;99.90
64396;DHT22;50717;53.360;6.290;2022-07-15T06:41:57;15.60;99.90
64396;DHT22;50717;53.360;6.290;2022-07-15T06:44:22;15.60;99.90
64396;DHT22;50717;53.360;6.290;2022-07-15T06:46:48;15.80;99.90
64396;DHT22;50717;53.360;6.290;2022-07-15T06:49:14;15.90;99.90
64396;DHT22;50717;53.360;6.290;2022-07-15T06:51:39;16.20;99.90
64396;DHT22;50717;53.360;6.290;2022-07-15T06:54:05;16.20;99.90
64396;DHT22;50717;53.360;6.290;2022-07-15T06:56:33;16.20;99.90
64396;DHT22;50717;53.360;6.290;2022-07-15T06:58:59;16.40;99.90
64396;DHT22;50717;53.360;6.290;2022-07-15T07:01:24;16.20;99.90
64396;DHT22;50717;53.360;6.290;2022-07-15T07:03:50;16.60;99.90
64396;DHT22;50717;53.360;6.290;2022-07-15T07:06:16;16.60;99.90
64396;DHT22;50717;53.360;6.290;2022-07-15T07:08:41;16.60;99.90
64396;DHT22;50717;53.360;6.290;2022-07-15T07:11:07;16.60;99.90
64396;DHT22;50717;53.360;6.290;2022-07-15T07:13:33;16.50;99.90
64396;DHT22;50717;53.360;6.290;2022-07-15T07:15:58;16.50;99.90
64396;DHT22;50717;53.360;6.290;2022-07-15T07:18:24;16.70;99.90
64396;DHT22;50717;53.360;6.290;2022-07-15T07:20:50;16.70;99.90
64396;DHT22;50717;53.360;6.290;2022-07-15T07:23:16;16.70;99.90
64396;DHT22;50717;53.360;6.290;2022-07-15T07:25:41;16.60;99.90
64396;DHT22;50717;53.360;6.290;2022-07-15T07:28:07;16.80;99.90
64396;DHT22;50717;53.360;6.290;2022-07-15T07:30:33;16.80;99.90
64396;DHT22;50717;53.360;6.290;2022-07-15T07:32:59;16.70;99.90
64396;DHT22;50717;53.360;6.290;2022-07-15T07:35:24;16.70;99.90
64396;DHT22;50717;53.360;6.290;2022-07-15T07:37:50;16.50;99.90
64396;DHT22;50717;53.360;6.290;2022-07-15T07:40:16;16.60;99.90
64396;DHT22;50717;53.360;6.290;2022-07-15T07:42:43;16.20;99.90
64396;DHT22;50717;53.360;6.290;2022-07-15T07:45:10;16.20;99.90
64396;DHT22;50717;53.360;6.290;2022-07-15T07:47:38;16.00;99.90
64396;DHT22;50717;53.360;6.290;2022-07-15T07:50:07;16.20;99.90
64396;DHT22;50717;53.360;6.290;2022-07-15T07:52:34;16.20;99.90
64396;DHT22;50717;53.360;6.290;2022-07-15T07:54:59;16.10;99.90
64396;DHT22;50717;53.360;6.290;2022-07-15T07:57:25;16.20;99.90
64396;DHT22;50717;53.360;6.290;2022-07-15T07:59:50;16.10;99.90
64396;DHT22;50717;53.360;6.290;2022-07-15T08:02:16;16.60;99.90
64396;DHT22;50717;53.360;6.290;2022-07-15T08:04:42;16.30;99.90
64396;DHT22;50717;53.360;6.290;2022-07-15T08:07:08;16.50;99.90
64396;DHT22;50717;53.360;6.290;2022-07-15T08:09:33;16.80;99.90
64396;DHT22;50717;53.360;6.290;2022-07-15T08:11:59;16.70;99.90
64396;DHT22;50717;53.360;6.290;2022-07-15T08:14:25;16.90;99.90
64396;DHT22;50717;53.360;6.290;2022-07-15T08:16:51;17.20;99.90
64396;DHT22;50717;53.360;6.290;2022-07-15T08:19:17;17.40;99.90
64396;DHT22;50717;53.360;6.290;2022-07-15T08:21:45;17.80;99.90
64396;DHT22;50717;53.360;6.290;2022-07-15T08:24:12;17.90;99.90
64396;DHT22;50717;53.360;6.290;2022-07-15T08:26:38;18.10;99.90
64396;DHT22;50717;53.360;6.290;2022-07-15T08:29:04;18.40;99.90
64396;DHT22;50717;53.360;6.290;2022-07-15T08:31:33;19.00;99.90
64396;DHT22;50717;53.360;6.290;2022-07-15T08:33:59;18.90;99.90
64396;DHT22;50717;53.360;6.290;2022-07-15T08:36:25;18.60;99.90
64396;DHT22;50717;53.360;6.290;2022-07-15T08:38:50;18.40;99.90
64396;DHT22;50717;53.360;6.290;2022-07-15T08:41:16;18.30;99.90
64396;DHT22;50717;53.360;6.290;2022-07-15T08:43:42;18.40;99.90
64396;DHT22;50717;53.360;6.290;2022-07-15T08:46:08;18.60;99.90
64396;DHT22;50717;53.360;6.290;2022-07-15T08:48:37;19.00;99.90
64396;DHT22;50717;53.360;6.290;2022-07-15T08:51:05;19.00;99.90
64396;DHT22;50717;53.360;6.290;2022-07-15T08:53:33;18.90;99.90
64396;DHT22;50717;53.360;6.290;2022-07-15T08:56:00;18.80;99.90
64396;DHT22;50717;53.360;6.290;2022-07-15T08:58:26;18.70;99.90
64396;DHT22;50717;53.360;6.290;2022-07-15T09:00:52;18.60;99.90
64396;DHT22;50717;53.360;6.290;2022-07-15T09:03:18;17.70;99.90
64396;DHT22;50717;53.360;6.290;2022-07-15T09:05:43;18.00;99.90
64396;DHT22;50717;53.360;6.290;2022-07-15T09:08:15;18.00;99.90
64396;DHT22;50717;53.360;6.290;2022-07-15T09:10:49;18.40;99.90
64396;DHT22;50717;53.360;6.290;2022-07-15T09:13:40;18.00;99.90
64396;DHT22;50717;53.360;6.290;2022-07-15T09:18:39;18.30;99.90
64396;DHT22;50717;53.360;6.290;2022-07-15T09:21:15;18.40;99.90
64396;DHT22;50717;53.360;6.290;2022-07-15T09:23:41;18.40;99.90
64396;DHT22;50717;53.360;6.290;2022-07-15T09:26:30;18.30;99.90
64396;DHT22;50717;53.360;6.290;2022-07-15T09:28:58;18.50;99.90
64396;DHT22;50717;53.360;6.290;2022-07-15T09:31:36;18.70;99.90
64396;DHT22;50717;53.360;6.290;2022-07-15T09:34:22;18.80;99.90
64396;DHT22;50717;53.360;6.290;2022-07-15T09:36:50;18.90;99.90
64396;DHT22;50717;53.360;6.290;2022-07-15T09:39:19;18.80;99.90
64396;DHT22;50717;53.360;6.290;2022-07-15T09:41:46;18.70;99.90
64396;DHT22;50717;53.360;6.290;2022-07-15T09:44:22;18.90;99.90
64396;DHT22;50717;53.360;6.290;2022-07-15T09:46:59;19.20;99.90
64396;DHT22;50717;53.360;6.290;2022-07-15T09:54:22;19.00;99.90
64396;DHT22;50717;53.360;6.290;2022-07-15T09:56:49;19.20;99.90
64396;DHT22;50717;53.360;6.290;2022-07-15T09:59:16;18.90;99.90
64396;DHT22;50717;53.360;6.290;2022-07-15T10:01:42;18.50;99.90
64396;DHT22;50717;53.360;6.290;2022-07-15T10:04:09;18.50;99.90
64396;DHT22;50717;53.360;6.290;2022-07-15T10:06:37;18.60;99.90
64396;DHT22;50717;53.360;6.290;2022-07-15T10:09:07;18.50;99.90
64396;DHT22;50717;53.360;6.290;2022-07-15T10:11:36;18.60;99.90
64396;DHT22;50717;53.360;6.290;2022-07-15T10:28:09;19.70;99.90
64396;DHT22;50717;53.360;6.290;2022-07-15T10:30:35;20.10;99.90
64396;DHT22;50717;53.360;6.290;2022-07-15T10:33:18;20.00;99.90
64396;DHT22;50717;53.360;6.290;2022-07-15T10:35:52;20.30;99.90
64396;DHT22;50717;53.360;6.290;2022-07-15T10:38:30;20.20;99.90
64396;DHT22;50717;53.360;6.290;2022-07-15T10:51:13;20.30;99.90
64396;DHT22;50717;53.360;6.290;2022-07-15T10:53:58;20.70;99.90
64396;DHT22;50717;53.360;6.290;2022-07-15T10:56:36;20.10;99.90
64396;DHT22;50717;53.360;6.290;2022-07-15T11:04:25;19.50;99.90
64396;DHT22;50717;53.360;6.290;2022-07-15T11:09:59;19.30;99.90
64396;DHT22;50717;53.360;6.290;2022-07-15T11:15:17;19.10;99.90
64396;DHT22;50717;53.360;6.290;2022-07-15T11:17:48;18.90;99.90
64396;DHT22;50717;53.360;6.290;2022-07-15T11:20:21;18.60;99.90
64396;DHT22;50717;53.360;6.290;2022-07-15T11:22:49;18.70;99.90
64396;DHT22;50717;53.360;6.290;2022-07-15T11:25:18;18.70;99.90
64396;DHT22;50717;53.360;6.290;2022-07-15T11:30:39;18.50;99.90
64396;DHT22;50717;53.360;6.290;2022-07-15T11:33:08;18.20;99.90
64396;DHT22;50717;53.360;6.290;2022-07-15T11:35:45;18.10;99.90
64396;DHT22;50717;53.360;6.290;2022-07-15T11:38:11;18.30;99.90
64396;DHT22;50717;53.360;6.290;2022-07-15T11:40:43;18.30;99.90
64396;DHT22;50717;53.360;6.290;2022-07-15T11:43:28;18.70;99.90
64396;DHT22;50717;53.360;6.290;2022-07-15T11:46:12;19.10;99.90
64396;DHT22;50717;53.360;6.290;2022-07-15T11:48:38;19.50;99.90
64396;DHT22;50717;53.360;6.290;2022-07-15T11:51:06;19.80;99.90
64396;DHT22;50717;53.360;6.290;2022-07-15T11:53:44;19.80;99.90
64396;DHT22;50717;53.360;6.290;2022-07-15T11:56:11;20.20;99.90
64396;DHT22;50717;53.360;6.290;2022-07-15T11:58:44;20.20;99.90
64396;DHT22;50717;53.360;6.290;2022-07-15T12:01:15;20.20;99.90
64396;DHT22;50717;53.360;6.290;2022-07-15T12:03:46;20.00;99.90
64396;DHT22;50717;53.360;6.290;2022-07-15T12:06:17;19.50;99.90
64396;DHT22;50717;53.360;6.290;2022-07-15T12:13:55;19.10;99.90
64396;DHT22;50717;53.360;6.290;2022-07-15T12:16:22;20.10;99.90
64396;DHT22;50717;53.360;6.290;2022-07-15T12:18:49;20.10;99.90
64396;DHT22;50717;53.360;6.290;2022-07-15T12:21:16;19.60;99.90
64396;DHT22;50717;53.360;6.290;2022-07-15T12:23:56;19.90;99.90
64396;DHT22;50717;53.360;6.290;2022-07-15T12:26:21;19.70;99.90
64396;DHT22;50717;53.360;6.290;2022-07-15T12:28:54;19.70;99.90
64396;DHT22;50717;53.360;6.290;2022-07-15T12:31:32;19.20;99.90
64396;DHT22;50717;53.360;6.290;2022-07-15T12:33:59;19.10;99.90
64396;DHT22;50717;53.360;6.290;2022-07-15T12:36:29;18.80;99.90
64396;DHT22;50717;53.360;6.290;2022-07-15T12:39:14;18.60;99.90
64396;DHT22;50717;53.360;6.290;2022-07-15T12:41:42;18.10;99.90
64396;DHT22;50717;53.360;6.290;2022-07-15T12:44:09;18.20;99.90
64396;DHT22;50717;53.360;6.290;2022-07-15T12:46:58;17.90;99.90
64396;DHT22;50717;53.360;6.290;2022-07-15T12:52:35;18.30;99.90
64396;DHT22;50717;53.360;6.290;2022-07-15T12:55:21;18.20;99.90
64396;DHT22;50717;53.360;6.290;2022-07-15T12:57:47;18.70;99.90
64396;DHT22;50717;53.360;6.290;2022-07-15T13:00:16;18.60;99.90
64396;DHT22;50717;53.360;6.290;2022-07-15T13:05:25;19.30;99.90
64396;DHT22;50717;53.360;6.290;2022-07-15T13:07:51;19.90;99.90
64396;DHT22;50717;53.360;6.290;2022-07-15T13:10:17;19.70;99.90
64396;DHT22;50717;53.360;6.290;2022-07-15T13:12:43;19.70;99.90
64396;DHT22;50717;53.360;6.290;2022-07-15T13:15:09;19.50;99.90
64396;DHT22;50717;53.360;6.290;2022-07-15T13:17:35;19.70;99.90
64396;DHT22;50717;53.360;6.290;2022-07-15T13:20:04;20.30;99.90
64396;DHT22;50717;53.360;6.290;2022-07-15T13:22:33;20.00;99.90
64396;DHT22;50717;53.360;6.290;2022-07-15T13:24:59;20.20;99.90
64396;DHT22;50717;53.360;6.290;2022-07-15T13:27:25;19.90;99.90
64396;DHT22;50717;53.360;6.290;2022-07-15T13:29:51;20.60;99.90
64396;DHT22;50717;53.360;6.290;2022-07-15T13:32:17;20.60;99.90
64396;DHT22;50717;53.360;6.290;2022-07-15T13:34:42;20.30;99.90
64396;DHT22;50717;53.360;6.290;2022-07-15T13:37:08;20.40;99.90
64396;DHT22;50717;53.360;6.290;2022-07-15T13:39:34;20.30;99.90
64396;DHT22;50717;53.360;6.290;2022-07-15T13:42:00;20.50;99.90
64396;DHT22;50717;53.360;6.290;2022-07-15T13:44:25;20.80;99.90
64396;DHT22;50717;53.360;6.290;2022-07-15T13:46:51;20.70;99.90
64396;DHT22;50717;53.360;6.290;2022-07-15T13:49:17;20.80;99.90
64396;DHT22;50717;53.360;6.290;2022-07-15T13:51:42;20.50;99.90
64396;DHT22;50717;53.360;6.290;2022-07-15T13:54:08;20.70;99.90
64396;DHT22;50717;53.360;6.290;2022-07-15T13:56:38;20.90;99.90
64396;DHT22;50717;53.360;6.290;2022-07-15T13:59:03;20.70;99.90
64396;DHT22;50717;53.360;6.290;2022-07-15T14:01:30;20.70;99.90
64396;DHT22;50717;53.360;6.290;2022-07-15T14:03:58;20.30;99.90
64396;DHT22;50717;53.360;6.290;2022-07-15T14:06:24;20.20;99.90
64396;DHT22;50717;53.360;6.290;2022-07-15T14:08:50;20.20;99.90
64396;DHT22;50717;53.360;6.290;2022-07-15T14:11:16;20.50;99.90
64396;DHT22;50717;53.360;6.290;2022-07-15T14:13:43;20.90;99.90
64396;DHT22;50717;53.360;6.290;2022-07-15T14:16:09;20.60;99.90
64396;DHT22;50717;53.360;6.290;2022-07-15T14:18:34;20.70;99.90
64396;DHT22;50717;53.360;6.290;2022-07-15T14:21:12;21.50;99.90
64396;DHT22;50717;53.360;6.290;2022-07-15T14:23:37;21.20;99.90
64396;DHT22;50717;53.360;6.290;2022-07-15T14:26:03;20.90;99.90
64396;DHT22;50717;53.360;6.290;2022-07-15T14:28:29;20.90;99.90
64396;DHT22;50717;53.360;6.290;2022-07-15T14:30:56;20.50;99.90
64396;DHT22;50717;53.360;6.290;2022-07-15T14:33:21;20.60;99.90
64396;DHT22;50717;53.360;6.290;2022-07-15T14:35:47;20.50;99.90
64396;DHT22;50717;53.360;6.290;2022-07-15T14:38:13;20.20;99.90
64396;DHT22;50717;53.360;6.290;2022-07-15T14:40:38;20.40;99.90
64396;DHT22;50717;53.360;6.290;2022-07-15T14:43:04;20.40;99.90
64396;DHT22;50717;53.360;6.290;2022-07-15T14:45:30;20.40;99.90
64396;DHT22;50717;53.360;6.290;2022-07-15T14:47:55;20.50;99.90
64396;DHT22;50717;53.360;6.290;2022-07-15T14:50:21;20.50;99.90
64396;DHT22;50717;53.360;6.290;2022-07-15T14:52:47;20.00;99.90
64396;DHT22;50717;53.360;6.290;2022-07-15T14:55:13;20.20;99.90
64396;DHT22;50717;53.360;6.290;2022-07-15T14:57:39;20.00;99.90
64396;DHT22;50717;53.360;6.290;2022-07-15T15:00:05;19.90;99.90
64396;DHT22;50717;53.360;6.290;2022-07-15T15:02:31;20.30;99.90
64396;DHT22;50717;53.360;6.290;2022-07-15T15:04:57;19.80;99.90
64396;DHT22;50717;53.360;6.290;2022-07-15T15:07:23;20.40;99.90
64396;DHT22;50717;53.360;6.290;2022-07-15T15:09:48;20.20;99.90
64396;DHT22;50717;53.360;6.290;2022-07-15T15:12:14;20.10;99.90
64396;DHT22;50717;53.360;6.290;2022-07-15T15:14:40;20.30;99.90
64396;DHT22;50717;53.360;6.290;2022-07-15T15:17:07;20.20;99.90
64396;DHT22;50717;53.360;6.290;2022-07-15T15:19:34;20.70;99.90
64396;DHT22;50717;53.360;6.290;2022-07-15T15:22:00;20.30;99.90
64396;DHT22;50717;53.360;6.290;2022-07-15T15:24:26;20.20;99.90
64396;DHT22;50717;53.360;6.290;2022-07-15T15:26:51;20.70;99.90
64396;DHT22;50717;53.360;6.290;2022-07-15T15:29:18;20.70;99.90
64396;DHT22;50717;53.360;6.290;2022-07-15T15:31:44;20.60;99.90
64396;DHT22;50717;53.360;6.290;2022-07-15T15:34:10;21.00;99.90
64396;DHT22;50717;53.360;6.290;2022-07-15T15:36:35;20.80;99.90
64396;DHT22;50717;53.360;6.290;2022-07-15T15:39:02;21.00;99.90
64396;DHT22;50717;53.360;6.290;2022-07-15T15:41:28;21.00;99.90
64396;DHT22;50717;53.360;6.290;2022-07-15T15:43:54;20.90;99.90
64396;DHT22;50717;53.360;6.290;2022-07-15T15:46:20;20.70;99.90
64396;DHT22;50717;53.360;6.290;2022-07-15T15:48:45;20.80;99.90
64396;DHT22;50717;53.360;6.290;2022-07-15T15:51:11;20.50;99.90
64396;DHT22;50717;53.360;6.290;2022-07-15T15:53:37;20.70;99.90
64396;DHT22;50717;53.360;6.290;2022-07-15T15:56:03;20.80;99.90
64396;DHT22;50717;53.360;6.290;2022-07-15T15:58:29;21.00;99.90
64396;DHT22;50717;53.360;6.290;2022-07-15T16:00:54;20.90;99.90
64396;DHT22;50717;53.360;6.290;2022-07-15T16:03:20;20.30;99.90
64396;DHT22;50717;53.360;6.290;2022-07-15T16:05:46;20.60;99.90
64396;DHT22;50717;53.360;6.290;2022-07-15T16:08:12;21.00;99.90
64396;DHT22;50717;53.360;6.290;2022-07-15T16:10:37;20.80;99.90
64396;DHT22;50717;53.360;6.290;2022-07-15T16:13:03;20.20;99.90
64396;DHT22;50717;53.360;6.290;2022-07-15T16:15:29;20.10;99.90
64396;DHT22;50717;53.360;6.290;2022-07-15T16:17:55;19.80;99.90
64396;DHT22;50717;53.360;6.290;2022-07-15T16:20:20;20.10;99.90
64396;DHT22;50717;53.360;6.290;2022-07-15T16:22:46;20.00;99.90
64396;DHT22;50717;53.360;6.290;2022-07-15T16:25:31;19.90;99.90
64396;DHT22;50717;53.360;6.290;2022-07-15T16:27:59;19.90;99.90